Aviation Digital Data Service (ADDS)

Output produced by TAFs form (1406 UTC 18 April 2014)
found at http://aviationweather.gov/adds/tafs/
 
KMTJ 181120Z 1812/1912 13007KT P6SM FEW250 
     FM181500 VRB03KT P6SM SCT250 
     FM181900 24010G20KT P6SM SCT100 BKN250 
     FM190200 15008KT P6SM BKN100 
     FM190800 17010KT P6SM OVC100